Harry B. Settoon — WDE5658 — position and weather

sailwx.info

Track history (hours):
 
Tides and Currents Weather Stations Pressure Air Temp Water Temp Dewpoint Dewpoint Depression Visibility Wind Speed Wind Dir Waves Ship Positions

Harry B. Settoon

Owner: Settoon Towing, LLC, Houma, LA. More information available from US FCC via Universal Licensing System and Coast Guard Vessel Documentation Center.

Last reported at 2017-Jan-24 04:06 UTC. Time now 2017-Jan-24 21:29 UTC.
Position N 29°33' W 090°25'.

; draft 1.8 m.

Type: Tug. MMSI: 367369920.

Date/timePositionNaut miles runAvg speedWind from/ knotsBaromVisibWave heightAir tempDewpointWater temp
2017-Jan-24 04:06N 29°33' W 090°25'4 7.2
2017-Jan-24 03:33N 29°34' W 090°29'7 7.0
2017-Jan-24 02:34N 29°35' W 090°37'5 5.0
2017-Jan-24 01:33N 29°35' W 090°43'0 0.5
2017-Jan-24 00:33N 29°35' W 090°43'4 3.9
2017-Jan-23 23:34N 29°32' W 090°46'  
2017-Jan-21 04:18N 29°46' W 091°39'6 3.2
2017-Jan-21 02:27N 29°46' W 091°46'6 3.2
2017-Jan-21 00:29N 29°50' W 091°50'5 5.4
2017-Jan-20 23:31N 29°51' W 091°56'6 6.4
2017-Jan-20 22:33N 29°49' W 092°03'5 4.9
2017-Jan-20 21:33N 29°46' W 092°07'6 5.9
2017-Jan-20 20:33N 29°41' W 092°03'1 1.1
2017-Jan-20 19:33N 29°41' W 092°02'0 0.0
2017-Jan-20 18:34N 29°41' W 092°02'0 0.0
2017-Jan-20 17:33N 29°41' W 092°02'0 0.0
2017-Jan-20 16:33N 29°41' W 092°02'0 0.0
2017-Jan-20 15:33N 29°41' W 092°02'4 4.1
2017-Jan-20 14:33N 29°43' W 091°58'5 5.3
2017-Jan-20 13:33N 29°46' W 091°54'  
2017-Jan-17 22:33N 29°36' W 090°58'6 5.7
2017-Jan-17 21:33N 29°32' W 090°53'6 5.7
2017-Jan-17 20:33N 29°32' W 090°46'4 3.9
2017-Jan-17 19:33N 29°35' W 090°43'0 0.0
2017-Jan-17 18:33N 29°35' W 090°43'3 3.0
2017-Jan-17 17:33N 29°36' W 090°40'6 5.9
2017-Jan-17 16:33N 29°34' W 090°33'  
Track history (hours):
 
Tides and Currents Weather Stations Pressure Air Temp Water Temp Dewpoint Dewpoint Depression Visibility Wind Speed Wind Dir Waves Ship Positions

Harry B. Settoon

Owner: Settoon Towing, LLC, Houma, LA. More information available from US FCC via Universal Licensing System and Coast Guard Vessel Documentation Center.

Last reported at 2017-Jan-24 04:06 UTC. Time now 2017-Jan-24 21:29 UTC.
Position N 29°33' W 090°25'.

; draft 1.8 m.

Type: Tug. MMSI: 367369920.

Date/timePositionNaut miles runAvg speedWind from/ knotsBaromVisibWave heightAir tempDewpointWater temp
2017-Jan-24 04:06N 29°33' W 090°25'4 7.2
2017-Jan-24 03:33N 29°34' W 090°29'7 7.0
2017-Jan-24 02:34N 29°35' W 090°37'5 5.0
2017-Jan-24 01:33N 29°35' W 090°43'0 0.5
2017-Jan-24 00:33N 29°35' W 090°43'4 3.9
2017-Jan-23 23:34N 29°32' W 090°46'  
2017-Jan-21 04:18N 29°46' W 091°39'6 3.2
2017-Jan-21 02:27N 29°46' W 091°46'6 3.2
2017-Jan-21 00:29N 29°50' W 091°50'5 5.4
2017-Jan-20 23:31N 29°51' W 091°56'6 6.4
2017-Jan-20 22:33N 29°49' W 092°03'5 4.9
2017-Jan-20 21:33N 29°46' W 092°07'6 5.9
2017-Jan-20 20:33N 29°41' W 092°03'1 1.1
2017-Jan-20 19:33N 29°41' W 092°02'0 0.0
2017-Jan-20 18:34N 29°41' W 092°02'0 0.0
2017-Jan-20 17:33N 29°41' W 092°02'0 0.0
2017-Jan-20 16:33N 29°41' W 092°02'0 0.0
2017-Jan-20 15:33N 29°41' W 092°02'4 4.1
2017-Jan-20 14:33N 29°43' W 091°58'5 5.3
2017-Jan-20 13:33N 29°46' W 091°54'  
2017-Jan-17 22:33N 29°36' W 090°58'6 5.7
2017-Jan-17 21:33N 29°32' W 090°53'6 5.7
2017-Jan-17 20:33N 29°32' W 090°46'4 3.9
2017-Jan-17 19:33N 29°35' W 090°43'0 0.0
2017-Jan-17 18:33N 29°35' W 090°43'3 3.0
2017-Jan-17 17:33N 29°36' W 090°40'6 5.9
2017-Jan-17 16:33N 29°34' W 090°33'  

Dump ship's entire track history